TAF KDEC
KDEC 090527Z 0906/1006 13010KT P6SM SCT250 FM091200 15014G23KT P6SM SCT100 BKN180 FM091700 20016G27KT P6SM SCT040 BKN180 FM092300 22010KT P6SM SCT040 BKN250=
METAR KDEC
WC KDEC
WS KDEC
WV KDEC